createdAt,value
2018-03-19T00:00:54.112Z,1007.32
2018-03-19T00:01:54.103Z,1007.31
2018-03-19T00:02:54.098Z,1007.28
2018-03-19T00:03:54.094Z,1007.25
2018-03-19T00:04:54.099Z,1007.25
2018-03-19T00:05:54.087Z,1007.24
2018-03-19T00:06:54.085Z,1007.27
2018-03-19T00:07:54.071Z,1007.24
2018-03-19T00:08:54.073Z,1007.28
2018-03-19T00:09:54.071Z,1007.25
2018-03-19T00:10:54.063Z,1007.28
2018-03-19T00:11:54.055Z,1007.25
2018-03-19T00:12:54.043Z,1007.26
2018-03-19T00:13:54.046Z,1007.24
2018-03-19T00:14:54.046Z,1007.26
2018-03-19T00:15:54.034Z,1007.26
2018-03-19T00:16:54.053Z,1007.29
2018-03-19T00:17:54.041Z,1007.29
2018-03-19T00:18:54.044Z,1007.28
2018-03-19T00:19:54.019Z,1007.28
2018-03-19T00:20:54.006Z,1007.27
2018-03-19T00:21:54.007Z,1007.32
2018-03-19T00:22:53.994Z,1007.26
2018-03-19T00:23:54.000Z,1007.27
2018-03-19T00:24:53.987Z,1007.24
2018-03-19T00:25:53.980Z,1007.22
2018-03-19T00:26:53.982Z,1007.23
2018-03-19T00:27:53.979Z,1007.20
2018-03-19T00:28:53.963Z,1007.22
2018-03-19T00:29:53.956Z,1007.23
2018-03-19T00:30:53.958Z,1007.21
2018-03-19T00:31:53.952Z,1007.22
2018-03-19T00:32:53.948Z,1007.20
2018-03-19T00:33:53.940Z,1007.22
2018-03-19T00:34:53.941Z,1007.22
2018-03-19T00:35:53.934Z,1007.21
2018-03-19T00:36:53.927Z,1007.16
2018-03-19T00:37:53.927Z,1007.20
2018-03-19T00:38:53.917Z,1007.23
2018-03-19T00:39:53.919Z,1007.22
2018-03-19T00:40:53.912Z,1007.22
2018-03-19T00:41:53.898Z,1007.19
2018-03-19T00:42:53.899Z,1007.20
2018-03-19T00:43:53.884Z,1007.23
2018-03-19T00:44:53.884Z,1007.26
2018-03-19T00:45:53.878Z,1007.19
2018-03-19T00:46:53.868Z,1007.18
2018-03-19T00:47:53.882Z,1007.20
2018-03-19T00:48:53.863Z,1007.18
2018-03-19T00:49:53.861Z,1007.20
2018-03-19T00:50:53.857Z,1007.19
2018-03-19T00:51:53.849Z,1007.17
2018-03-19T00:52:53.846Z,1007.13
2018-03-19T00:53:53.841Z,1007.16
2018-03-19T00:54:53.836Z,1007.17
2018-03-19T00:55:53.833Z,1007.19
2018-03-19T00:56:53.808Z,1007.13
2018-03-19T00:57:53.821Z,1007.16
2018-03-19T00:58:53.808Z,1007.16
2018-03-19T00:59:53.806Z,1007.10
2018-03-19T01:00:53.798Z,1007.11
2018-03-19T01:01:53.797Z,1007.12
2018-03-19T01:02:53.793Z,1007.14
2018-03-19T01:03:53.783Z,1007.12
2018-03-19T01:04:53.782Z,1007.14
2018-03-19T01:05:53.787Z,1007.14
2018-03-19T01:06:53.780Z,1007.10
2018-03-19T01:07:53.768Z,1007.15
2018-03-19T01:08:53.760Z,1007.14
2018-03-19T01:09:53.760Z,1007.14
2018-03-19T01:10:53.752Z,1007.14
2018-03-19T01:11:53.743Z,1007.13
2018-03-19T01:12:53.744Z,1007.11
2018-03-19T01:13:53.743Z,1007.07
2018-03-19T01:14:53.727Z,1007.11
2018-03-19T01:15:53.733Z,1007.08
2018-03-19T01:16:53.719Z,1007.07
2018-03-19T01:17:53.718Z,1007.06
2018-03-19T01:18:53.704Z,1007.06
2018-03-19T01:19:53.699Z,1007.06
2018-03-19T01:20:53.697Z,1007.04
2018-03-19T01:21:53.688Z,1007.06
2018-03-19T01:22:53.693Z,1007.05
2018-03-19T01:23:53.683Z,1007.03
2018-03-19T01:24:53.678Z,1007.03
2018-03-19T01:25:53.678Z,1007.04
2018-03-19T01:26:53.667Z,1007.08
2018-03-19T01:27:53.659Z,1007.09
2018-03-19T01:28:53.660Z,1007.08
2018-03-19T01:29:53.662Z,1007.12
2018-03-19T01:30:53.654Z,1007.08
2018-03-19T01:31:53.638Z,1007.10
2018-03-19T01:32:53.638Z,1007.09
2018-03-19T01:33:53.626Z,1007.13
2018-03-19T01:34:53.632Z,1007.09
2018-03-19T01:35:53.619Z,1007.12
2018-03-19T01:36:53.614Z,1007.13
2018-03-19T01:37:53.610Z,1007.15
2018-03-19T01:38:53.613Z,1007.15
2018-03-19T01:39:53.593Z,1007.11
2018-03-19T01:40:53.580Z,1007.12
2018-03-19T01:41:53.595Z,1007.11
2018-03-19T01:42:53.584Z,1007.12
2018-03-19T01:43:53.574Z,1007.10
2018-03-19T01:44:53.571Z,1007.08
2018-03-19T01:45:53.564Z,1007.06
2018-03-19T01:46:53.570Z,1007.08
2018-03-19T01:47:53.557Z,1007.04
2018-03-19T01:48:53.547Z,1007.06
2018-03-19T01:49:53.548Z,1007.06
2018-03-19T01:50:53.543Z,1007.06
2018-03-19T01:51:53.538Z,1007.08
2018-03-19T01:52:53.528Z,1007.08
2018-03-19T01:53:53.523Z,1007.03
2018-03-19T01:54:53.519Z,1007.06
2018-03-19T01:55:53.520Z,1007.09
2018-03-19T01:56:53.514Z,1007.09
2018-03-19T01:57:53.514Z,1007.07
2018-03-19T01:58:53.499Z,1007.05
2018-03-19T01:59:53.492Z,1007.06
2018-03-19T02:00:53.489Z,1007.08
2018-03-19T02:01:53.482Z,1007.07
2018-03-19T02:02:53.473Z,1007.03
2018-03-19T02:03:53.488Z,1007.07
2018-03-19T02:04:53.469Z,1007.03
2018-03-19T02:05:53.460Z,1007.01
2018-03-19T02:06:53.457Z,1007.01
2018-03-19T02:07:53.448Z,1007.02
2018-03-19T02:08:53.448Z,1007.01
2018-03-19T02:09:53.439Z,1007.02
2018-03-19T02:10:53.457Z,1006.97
2018-03-19T02:11:53.433Z,1006.96
2018-03-19T02:12:53.427Z,1006.94
2018-03-19T02:13:53.419Z,1006.96
2018-03-19T02:14:53.419Z,1006.97
2018-03-19T02:15:53.409Z,1006.96
2018-03-19T02:16:53.394Z,1006.94
2018-03-19T02:17:53.408Z,1006.94
2018-03-19T02:18:53.396Z,1006.94
2018-03-19T02:19:53.389Z,1006.89
2018-03-19T02:20:53.383Z,1006.96
2018-03-19T02:21:53.375Z,1006.96
2018-03-19T02:22:53.364Z,1006.97
2018-03-19T02:23:53.380Z,1006.96
2018-03-19T02:24:53.360Z,1006.97
2018-03-19T02:25:53.379Z,1006.99
2018-03-19T02:26:53.358Z,1006.99
2018-03-19T02:27:53.350Z,1006.96
2018-03-19T02:28:53.342Z,1006.95
2018-03-19T02:29:53.352Z,1006.93
2018-03-19T02:30:53.332Z,1006.94
2018-03-19T02:31:53.325Z,1006.93
2018-03-19T02:32:53.354Z,1006.96
2018-03-19T02:33:53.314Z,1006.96
2018-03-19T02:34:53.309Z,1006.97
2018-03-19T02:35:53.325Z,1006.97
2018-03-19T02:36:53.301Z,1006.98
2018-03-19T02:37:53.300Z,1006.97
2018-03-19T02:38:53.286Z,1006.99
2018-03-19T02:39:53.290Z,1006.96
2018-03-19T02:40:53.276Z,1006.99
2018-03-19T02:41:53.276Z,1007.02
2018-03-19T02:42:53.270Z,1006.98
2018-03-19T02:43:53.265Z,1006.99
2018-03-19T02:44:53.254Z,1007.05
2018-03-19T02:45:53.253Z,1007.09
2018-03-19T02:46:53.263Z,1007.08
2018-03-19T02:47:53.250Z,1007.03
2018-03-19T02:48:53.237Z,1007.05
2018-03-19T02:49:53.225Z,1007.03
2018-03-19T02:50:53.229Z,1007.04
2018-03-19T02:51:53.246Z,1007.01
2018-03-19T02:52:53.219Z,1007.02
2018-03-19T02:53:53.206Z,1007.04
2018-03-19T02:54:53.208Z,1007.04
2018-03-19T02:55:53.200Z,1007.05
2018-03-19T02:56:53.196Z,1007.07
2018-03-19T02:57:53.189Z,1007.04
2018-03-19T02:58:53.188Z,1007.07
2018-03-19T02:59:53.182Z,1007.07
2018-03-19T03:00:53.175Z,1007.07
2018-03-19T03:01:53.169Z,1007.08
2018-03-19T03:02:53.180Z,1007.06
2018-03-19T03:03:53.155Z,1007.06
2018-03-19T03:04:53.151Z,1007.12
2018-03-19T03:05:53.149Z,1007.09
2018-03-19T03:06:53.139Z,1007.07
2018-03-19T03:07:53.139Z,1007.08
2018-03-19T03:08:53.130Z,1007.09
2018-03-19T03:09:53.129Z,1007.07
2018-03-19T03:10:53.121Z,1007.09
2018-03-19T03:11:53.120Z,1007.07
2018-03-19T03:12:53.116Z,1007.08
2018-03-19T03:13:53.102Z,1007.06
2018-03-19T03:14:53.104Z,1007.05
2018-03-19T03:15:53.104Z,1007.09
2018-03-19T03:16:53.084Z,1007.11
2018-03-19T03:17:53.090Z,1007.07
2018-03-19T03:18:53.087Z,1007.09
2018-03-19T03:19:53.079Z,1007.13
2018-03-19T03:20:53.064Z,1007.14
2018-03-19T03:21:53.056Z,1007.13
2018-03-19T03:22:53.066Z,1007.09
2018-03-19T03:23:53.054Z,1007.05
2018-03-19T03:24:53.034Z,1007.06
2018-03-19T03:25:53.050Z,1007.06
2018-03-19T03:26:53.050Z,1007.07
2018-03-19T03:27:53.032Z,1007.07
2018-03-19T03:28:53.027Z,1007.07
2018-03-19T03:29:53.024Z,1007.06
2018-03-19T03:30:53.016Z,1007.09
2018-03-19T03:31:53.018Z,1007.07
2018-03-19T03:32:53.018Z,1007.13
2018-03-19T03:33:53.010Z,1007.13
2018-03-19T03:34:52.993Z,1007.11
2018-03-19T03:35:52.995Z,1007.17
2018-03-19T03:36:52.989Z,1007.16
2018-03-19T03:37:52.981Z,1007.15
2018-03-19T03:38:52.982Z,1007.19
2018-03-19T03:39:52.965Z,1007.13
2018-03-19T03:40:52.959Z,1007.11
2018-03-19T03:41:52.971Z,1007.16
2018-03-19T03:42:52.945Z,1007.17
2018-03-19T03:43:52.945Z,1007.14
2018-03-19T03:44:52.944Z,1007.14
2018-03-19T03:45:52.937Z,1007.15
2018-03-19T03:46:52.935Z,1007.15
2018-03-19T03:47:52.932Z,1007.21
2018-03-19T03:48:52.917Z,1007.25
2018-03-19T03:49:52.916Z,1007.25
2018-03-19T03:50:52.911Z,1007.18
2018-03-19T03:51:52.906Z,1007.18
2018-03-19T03:52:52.907Z,1007.22
2018-03-19T03:53:52.892Z,1007.24
2018-03-19T03:54:52.896Z,1007.19
2018-03-19T03:55:52.892Z,1007.23
2018-03-19T03:56:52.876Z,1007.17
2018-03-19T03:57:52.874Z,1007.16
2018-03-19T03:58:52.870Z,1007.22
2018-03-19T03:59:52.875Z,1007.20
2018-03-19T04:00:52.854Z,1007.20
2018-03-19T04:01:52.850Z,1007.19
2018-03-19T04:02:52.850Z,1007.25
2018-03-19T04:03:52.840Z,1007.18
2018-03-19T04:04:52.846Z,1007.24
2018-03-19T04:05:52.830Z,1007.26
2018-03-19T04:06:52.825Z,1007.24
2018-03-19T04:07:52.825Z,1007.27
2018-03-19T04:08:52.820Z,1007.29
2018-03-19T04:09:52.810Z,1007.30
2018-03-19T04:10:52.803Z,1007.33
2018-03-19T04:11:52.791Z,1007.30
2018-03-19T04:12:52.793Z,1007.29
2018-03-19T04:13:52.791Z,1007.30
2018-03-19T04:14:52.790Z,1007.27
2018-03-19T04:15:52.813Z,1007.29
2018-03-19T04:16:52.780Z,1007.30
2018-03-19T04:17:52.770Z,1007.29
2018-03-19T04:18:52.767Z,1007.31
2018-03-19T04:19:52.757Z,1007.33
2018-03-19T04:20:52.755Z,1007.33
2018-03-19T04:21:52.744Z,1007.29
2018-03-19T04:22:52.746Z,1007.32
2018-03-19T04:23:52.735Z,1007.27
2018-03-19T04:24:52.736Z,1007.34
2018-03-19T04:25:52.736Z,1007.31
2018-03-19T04:26:52.726Z,1007.30
2018-03-19T04:27:52.715Z,1007.31
2018-03-19T04:28:52.710Z,1007.30
2018-03-19T04:29:52.711Z,1007.36
2018-03-19T04:30:52.711Z,1007.31
2018-03-19T04:31:52.702Z,1007.32
2018-03-19T04:32:52.695Z,1007.38
2018-03-19T04:33:52.685Z,1007.36
2018-03-19T04:34:52.686Z,1007.37
2018-03-19T04:35:52.667Z,1007.39
2018-03-19T04:36:52.680Z,1007.38
2018-03-19T04:37:52.707Z,1007.36
2018-03-19T04:38:52.666Z,1007.38
2018-03-19T04:39:52.641Z,1007.39
2018-03-19T04:40:52.647Z,1007.35
2018-03-19T04:41:52.641Z,1007.37
2018-03-19T04:42:52.636Z,1007.38
2018-03-19T04:43:52.636Z,1007.40
2018-03-19T04:44:52.633Z,1007.39
2018-03-19T04:45:52.631Z,1007.37
2018-03-19T04:46:52.613Z,1007.39
2018-03-19T04:47:52.611Z,1007.34
2018-03-19T04:48:52.603Z,1007.34
2018-03-19T04:49:52.603Z,1007.35
2018-03-19T04:50:52.596Z,1007.33
2018-03-19T04:51:52.587Z,1007.35
2018-03-19T04:52:52.591Z,1007.35
2018-03-19T04:53:52.583Z,1007.40
2018-03-19T04:54:52.577Z,1007.35
2018-03-19T04:55:52.577Z,1007.33
2018-03-19T04:56:52.563Z,1007.38
2018-03-19T04:57:52.558Z,1007.38
2018-03-19T04:58:52.582Z,1007.35
2018-03-19T04:59:52.556Z,1007.35
2018-03-19T05:00:52.548Z,1007.37
2018-03-19T05:01:52.537Z,1007.40
2018-03-19T05:02:52.546Z,1007.42
2018-03-19T05:03:52.527Z,1007.39
2018-03-19T05:04:52.523Z,1007.38
2018-03-19T05:05:52.522Z,1007.37
2018-03-19T05:06:52.504Z,1007.38
2018-03-19T05:07:52.508Z,1007.38
2018-03-19T05:08:52.496Z,1007.42
2018-03-19T05:09:52.492Z,1007.34
2018-03-19T05:10:52.493Z,1007.41
2018-03-19T05:11:52.487Z,1007.46
2018-03-19T05:12:52.478Z,1007.44
2018-03-19T05:13:52.471Z,1007.43
2018-03-19T05:14:52.467Z,1007.38
2018-03-19T05:15:52.467Z,1007.43
2018-03-19T05:16:52.458Z,1007.40
2018-03-19T05:17:52.451Z,1007.42
2018-03-19T05:18:52.446Z,1007.43
2018-03-19T05:19:52.452Z,1007.46
2018-03-19T05:20:52.441Z,1007.42
2018-03-19T05:21:52.437Z,1007.46
2018-03-19T05:22:52.431Z,1007.47
2018-03-19T05:23:52.426Z,1007.46
2018-03-19T05:24:52.429Z,1007.49
2018-03-19T05:25:52.426Z,1007.46
2018-03-19T05:26:52.404Z,1007.52
2018-03-19T05:27:52.403Z,1007.50
2018-03-19T05:28:52.394Z,1007.50
2018-03-19T05:29:52.388Z,1007.51
2018-03-19T05:30:52.385Z,1007.48
2018-03-19T05:31:52.389Z,1007.51
2018-03-19T05:32:52.377Z,1007.54
2018-03-19T05:33:52.373Z,1007.52
2018-03-19T05:34:52.369Z,1007.55
2018-03-19T05:35:52.361Z,1007.51
2018-03-19T05:36:52.350Z,1007.54
2018-03-19T05:37:52.352Z,1007.55
2018-03-19T05:38:52.344Z,1007.59
2018-03-19T05:39:52.342Z,1007.59
2018-03-19T05:40:52.334Z,1007.58
2018-03-19T05:41:52.334Z,1007.60
2018-03-19T05:42:52.323Z,1007.59
2018-03-19T05:43:52.324Z,1007.61
2018-03-19T05:44:52.314Z,1007.59
2018-03-19T05:45:52.308Z,1007.57
2018-03-19T05:46:52.298Z,1007.55
2018-03-19T05:47:52.302Z,1007.56
2018-03-19T05:48:52.294Z,1007.57
2018-03-19T05:49:52.303Z,1007.57
2018-03-19T05:50:52.278Z,1007.61
2018-03-19T05:51:52.274Z,1007.58
2018-03-19T05:52:52.272Z,1007.59
2018-03-19T05:53:52.274Z,1007.62
2018-03-19T05:54:52.273Z,1007.65
2018-03-19T05:55:52.255Z,1007.70
2018-03-19T05:56:52.254Z,1007.66
2018-03-19T05:57:52.238Z,1007.68
2018-03-19T05:58:52.242Z,1007.64
2018-03-19T05:59:52.238Z,1007.70
2018-03-19T06:00:52.226Z,1007.70
2018-03-19T06:01:52.227Z,1007.73
2018-03-19T06:02:52.213Z,1007.74
2018-03-19T06:03:52.235Z,1007.72
2018-03-19T06:04:52.212Z,1007.77
2018-03-19T06:05:52.210Z,1007.77
2018-03-19T06:06:52.197Z,1007.81
2018-03-19T06:07:52.194Z,1007.74
2018-03-19T06:08:52.191Z,1007.80
2018-03-19T06:09:52.184Z,1007.79
2018-03-19T06:10:52.174Z,1007.79
2018-03-19T06:11:52.165Z,1007.81
2018-03-19T06:12:52.172Z,1007.82
2018-03-19T06:13:52.162Z,1007.89
2018-03-19T06:14:52.159Z,1007.86
2018-03-19T06:15:52.160Z,1007.85
2018-03-19T06:16:52.152Z,1007.90
2018-03-19T06:17:52.132Z,1007.89
2018-03-19T06:18:52.124Z,1007.96
2018-03-19T06:19:52.138Z,1007.93
2018-03-19T06:20:52.119Z,1008.02
2018-03-19T06:21:52.120Z,1007.98
2018-03-19T06:22:52.112Z,1008.01
2018-03-19T06:23:52.110Z,1008.01
2018-03-19T06:24:52.104Z,1007.99
2018-03-19T06:25:52.098Z,1008.03
2018-03-19T06:26:52.098Z,1008.02
2018-03-19T06:27:52.088Z,1008.10
2018-03-19T06:28:52.091Z,1008.01
2018-03-19T06:29:52.069Z,1007.99
2018-03-19T06:30:52.065Z,1008.01
2018-03-19T06:31:52.065Z,1008.01
2018-03-19T06:32:52.060Z,1008.05
2018-03-19T06:33:52.050Z,1008.05
2018-03-19T06:34:52.051Z,1008.03
2018-03-19T06:35:52.044Z,1008.05
2018-03-19T06:36:52.048Z,1008.02
2018-03-19T06:37:52.028Z,1008.00
2018-03-19T06:38:52.048Z,1008.05
2018-03-19T06:39:52.032Z,1008.06
2018-03-19T06:40:52.015Z,1007.98
2018-03-19T06:41:52.010Z,1008.03
2018-03-19T06:42:52.011Z,1008.06
2018-03-19T06:43:52.004Z,1008.03
2018-03-19T06:44:52.000Z,1008.07
2018-03-19T06:45:51.984Z,1008.04
2018-03-19T06:46:51.985Z,1008.05
2018-03-19T06:47:51.978Z,1008.08
2018-03-19T06:48:51.983Z,1008.04
2018-03-19T06:49:51.996Z,1008.09
2018-03-19T06:50:51.966Z,1008.13
2018-03-19T06:51:51.960Z,1008.12
2018-03-19T06:52:51.950Z,1008.13
2018-03-19T06:53:51.947Z,1008.09
2018-03-19T06:54:51.940Z,1008.14
2018-03-19T06:55:51.941Z,1008.15
2018-03-19T06:56:51.945Z,1008.14
2018-03-19T06:57:51.928Z,1008.09
2018-03-19T06:58:51.921Z,1008.10
2018-03-19T06:59:51.921Z,1008.11
2018-03-19T07:00:51.962Z,1008.09
2018-03-19T07:01:51.910Z,1008.08
2018-03-19T07:02:51.903Z,1008.13
2018-03-19T07:03:51.897Z,1008.07
2018-03-19T07:04:51.901Z,1008.18
2018-03-19T07:05:51.884Z,1008.14
2018-03-19T07:06:51.880Z,1008.13
2018-03-19T07:07:51.875Z,1008.17
2018-03-19T07:08:51.873Z,1008.16
2018-03-19T07:09:51.869Z,1008.24
2018-03-19T07:10:51.856Z,1008.24
2018-03-19T07:11:51.859Z,1008.23
2018-03-19T07:12:51.862Z,1008.27
2018-03-19T07:13:51.839Z,1008.25
2018-03-19T07:14:51.847Z,1008.29
2018-03-19T07:15:51.826Z,1008.24
2018-03-19T07:16:51.824Z,1008.27
2018-03-19T07:17:51.834Z,1008.27
2018-03-19T07:18:51.819Z,1008.29
2018-03-19T07:19:51.811Z,1008.28
2018-03-19T07:20:51.813Z,1008.31
2018-03-19T07:21:51.795Z,1008.30
2018-03-19T07:22:51.799Z,1008.35
2018-03-19T07:23:51.799Z,1008.37
2018-03-19T07:24:51.786Z,1008.35
2018-03-19T07:25:51.783Z,1008.40
2018-03-19T07:26:51.774Z,1008.40
2018-03-19T07:27:51.768Z,1008.42
2018-03-19T07:28:51.772Z,1008.36
2018-03-19T07:29:51.764Z,1008.39
2018-03-19T07:30:51.761Z,1008.41
2018-03-19T07:31:51.749Z,1008.36
2018-03-19T07:32:51.745Z,1008.41
2018-03-19T07:33:51.758Z,1008.40
2018-03-19T07:34:51.740Z,1008.43
2018-03-19T07:35:51.727Z,1008.49
2018-03-19T07:36:51.722Z,1008.44
2018-03-19T07:37:51.721Z,1008.41
2018-03-19T07:38:51.706Z,1008.50
2018-03-19T07:39:51.712Z,1008.46
2018-03-19T07:40:51.720Z,1008.46
2018-03-19T07:41:51.691Z,1008.44
2018-03-19T07:42:51.690Z,1008.44
2018-03-19T07:43:51.681Z,1008.44
2018-03-19T07:44:51.684Z,1008.36
2018-03-19T07:45:51.688Z,1008.41
2018-03-19T07:46:51.672Z,1008.41
2018-03-19T07:47:51.665Z,1008.40
2018-03-19T07:48:51.664Z,1008.39
2018-03-19T07:49:51.655Z,1008.39
2018-03-19T07:50:51.647Z,1008.40
2018-03-19T07:51:51.641Z,1008.39
2018-03-19T07:52:51.635Z,1008.37
2018-03-19T07:53:51.630Z,1008.35
2018-03-19T07:54:51.647Z,1008.33
2018-03-19T07:55:51.623Z,1008.36
2018-03-19T07:56:51.620Z,1008.38
2018-03-19T07:57:51.607Z,1008.34
2018-03-19T07:58:51.606Z,1008.36
2018-03-19T07:59:51.623Z,1008.33
2018-03-19T08:00:51.605Z,1008.38
2018-03-19T08:01:51.587Z,1008.44
2018-03-19T08:02:51.605Z,1008.34
2018-03-19T08:03:51.582Z,1008.33
2018-03-19T08:04:51.589Z,1008.37
2018-03-19T08:05:51.570Z,1008.39
2018-03-19T08:06:51.560Z,1008.39
2018-03-19T08:07:51.555Z,1008.37
2018-03-19T08:08:51.562Z,1008.36
2018-03-19T08:09:51.555Z,1008.34
2018-03-19T08:10:51.545Z,1008.32
2018-03-19T08:11:51.541Z,1008.34
2018-03-19T08:12:51.531Z,1008.36
2018-03-19T08:13:51.530Z,1008.39
2018-03-19T08:14:51.543Z,1008.40
2018-03-19T08:15:51.527Z,1008.42
2018-03-19T08:16:51.525Z,1008.41
2018-03-19T08:17:51.519Z,1008.45
2018-03-19T08:18:51.508Z,1008.39
2018-03-19T08:19:51.492Z,1008.40
2018-03-19T08:20:51.490Z,1008.40
2018-03-19T08:21:51.483Z,1008.38
2018-03-19T08:22:51.491Z,1008.37
2018-03-19T08:23:51.480Z,1008.38
2018-03-19T08:24:51.490Z,1008.38
2018-03-19T08:25:51.490Z,1008.38
2018-03-19T08:26:51.462Z,1008.36
2018-03-19T08:27:51.460Z,1008.39
2018-03-19T08:28:51.447Z,1008.39
2018-03-19T08:29:51.457Z,1008.40
2018-03-19T08:30:51.444Z,1008.43
2018-03-19T08:31:51.441Z,1008.43
2018-03-19T08:32:51.426Z,1008.42
2018-03-19T08:33:51.425Z,1008.46
2018-03-19T08:34:51.426Z,1008.46
2018-03-19T08:35:51.416Z,1008.47
2018-03-19T08:36:51.417Z,1008.48
2018-03-19T08:37:51.402Z,1008.51
2018-03-19T08:38:51.403Z,1008.51
2018-03-19T08:39:51.402Z,1008.49
2018-03-19T08:40:51.398Z,1008.53
2018-03-19T08:41:51.440Z,1008.55
2018-03-19T08:42:51.380Z,1008.57
2018-03-19T08:43:51.382Z,1008.58
2018-03-19T08:44:51.383Z,1008.57
2018-03-19T08:45:51.365Z,1008.58
2018-03-19T08:46:51.367Z,1008.50
2018-03-19T08:47:51.372Z,1008.54
2018-03-19T08:48:51.346Z,1008.48
2018-03-19T08:49:51.356Z,1008.52
2018-03-19T08:50:51.351Z,1008.49
2018-03-19T08:51:51.352Z,1008.50
2018-03-19T08:52:51.346Z,1008.50
2018-03-19T08:53:51.331Z,1008.46
2018-03-19T08:54:51.337Z,1008.50
2018-03-19T08:55:51.321Z,1008.54
2018-03-19T08:56:51.316Z,1008.47
2018-03-19T08:57:51.311Z,1008.48
2018-03-19T08:58:51.307Z,1008.51
2018-03-19T08:59:51.318Z,1008.49
2018-03-19T09:00:51.297Z,1008.53
2018-03-19T09:01:51.282Z,1008.48
2018-03-19T09:02:51.279Z,1008.57
2018-03-19T09:03:51.278Z,1008.52
2018-03-19T09:04:51.272Z,1008.51
2018-03-19T09:05:51.293Z,1008.51
2018-03-19T09:06:51.272Z,1008.51
2018-03-19T09:07:51.266Z,1008.49
2018-03-19T09:08:51.271Z,1008.51
2018-03-19T09:09:51.256Z,1008.49
2018-03-19T09:10:51.256Z,1008.48
2018-03-19T09:11:51.238Z,1008.53
2018-03-19T09:12:51.244Z,1008.52
2018-03-19T09:13:51.230Z,1008.49
2018-03-19T09:14:51.228Z,1008.54
2018-03-19T09:15:51.220Z,1008.56
2018-03-19T09:16:51.239Z,1008.50
2018-03-19T09:17:51.220Z,1008.52
2018-03-19T09:18:51.208Z,1008.49
2018-03-19T09:19:51.211Z,1008.49
2018-03-19T09:20:51.201Z,1008.51
2018-03-19T09:21:51.208Z,1008.49
2018-03-19T09:22:51.195Z,1008.52
2018-03-19T09:23:51.182Z,1008.51
2018-03-19T09:24:51.183Z,1008.54
2018-03-19T09:25:51.181Z,1008.50
2018-03-19T09:26:51.169Z,1008.55
2018-03-19T09:27:51.159Z,1008.52
2018-03-19T09:28:51.164Z,1008.48
2018-03-19T09:29:51.157Z,1008.54
2018-03-19T09:30:51.157Z,1008.50
2018-03-19T09:31:51.146Z,1008.55
2018-03-19T09:32:51.136Z,1008.53
2018-03-19T09:33:51.137Z,1008.55
2018-03-19T09:34:51.131Z,1008.59
2018-03-19T09:35:51.132Z,1008.67
2018-03-19T09:36:51.127Z,1008.58
2018-03-19T09:37:51.128Z,1008.57
2018-03-19T09:38:51.131Z,1008.56
2018-03-19T09:39:51.116Z,1008.58
2018-03-19T09:40:51.107Z,1008.58
2018-03-19T09:41:51.122Z,1008.57
2018-03-19T09:42:51.101Z,1008.59
2018-03-19T09:43:51.096Z,1008.60
2018-03-19T09:44:51.082Z,1008.56
2018-03-19T09:45:51.082Z,1008.57
2018-03-19T09:46:51.077Z,1008.57
2018-03-19T09:47:51.083Z,1008.57
2018-03-19T09:48:51.063Z,1008.60
2018-03-19T09:49:51.067Z,1008.53
2018-03-19T09:50:51.068Z,1008.51
2018-03-19T09:51:51.058Z,1008.56
2018-03-19T09:52:51.056Z,1008.55
2018-03-19T09:53:51.044Z,1008.54
2018-03-19T09:54:51.042Z,1008.60
2018-03-19T09:55:51.044Z,1008.59
2018-03-19T09:56:51.037Z,1008.62
2018-03-19T09:57:51.038Z,1008.65
2018-03-19T09:58:51.056Z,1008.64
2018-03-19T09:59:51.029Z,1008.63
2018-03-19T10:00:51.022Z,1008.64
2018-03-19T10:01:51.018Z,1008.65
2018-03-19T10:02:51.050Z,1008.70
2018-03-19T10:03:51.014Z,1008.69
2018-03-19T10:04:51.013Z,1008.72
2018-03-19T10:05:50.999Z,1008.70
2018-03-19T10:06:50.997Z,1008.69
2018-03-19T10:07:50.999Z,1008.72
2018-03-19T10:08:50.987Z,1008.74
2018-03-19T10:09:50.984Z,1008.73
2018-03-19T10:10:50.986Z,1008.75
2018-03-19T10:11:50.971Z,1008.70
2018-03-19T10:12:50.973Z,1008.72
2018-03-19T10:13:50.968Z,1008.79
2018-03-19T10:14:50.959Z,1008.81
2018-03-19T10:15:50.955Z,1008.73
2018-03-19T10:16:50.957Z,1008.82
2018-03-19T10:17:50.957Z,1008.79
2018-03-19T10:18:50.947Z,1008.81
2018-03-19T10:19:50.938Z,1008.76
2018-03-19T10:20:50.946Z,1008.75
2018-03-19T10:21:50.939Z,1008.77
2018-03-19T10:22:50.931Z,1008.77
2018-03-19T10:23:50.944Z,1008.74
2018-03-19T10:24:50.922Z,1008.77
2018-03-19T10:25:50.920Z,1008.74
2018-03-19T10:26:50.919Z,1008.77
2018-03-19T10:27:50.920Z,1008.79
2018-03-19T10:28:50.903Z,1008.72
2018-03-19T10:29:50.909Z,1008.70
2018-03-19T10:30:50.906Z,1008.71
2018-03-19T10:31:50.895Z,1008.78
2018-03-19T10:32:50.898Z,1008.74
2018-03-19T10:33:50.889Z,1008.73
2018-03-19T10:34:50.885Z,1008.73
2018-03-19T10:35:50.879Z,1008.74
2018-03-19T10:36:50.878Z,1008.77
2018-03-19T10:37:50.874Z,1008.80
2018-03-19T10:38:50.864Z,1008.78
2018-03-19T10:39:50.855Z,1008.79
2018-03-19T10:40:50.852Z,1008.79
2018-03-19T10:41:50.854Z,1008.86
2018-03-19T10:42:50.855Z,1008.89
2018-03-19T10:43:50.850Z,1008.86
2018-03-19T10:44:50.843Z,1008.84
2018-03-19T10:45:50.845Z,1008.85
2018-03-19T10:46:50.836Z,1008.82
2018-03-19T10:47:50.947Z,1008.85
2018-03-19T10:48:50.828Z,1008.83
2018-03-19T10:49:50.847Z,1008.83
2018-03-19T10:50:50.828Z,1008.86
2018-03-19T10:51:50.813Z,1008.85
2018-03-19T10:52:50.854Z,1008.89
2018-03-19T10:53:50.810Z,1008.93
2018-03-19T10:54:50.831Z,1008.88
2018-03-19T10:55:50.794Z,1008.91
2018-03-19T10:56:50.810Z,1008.88
2018-03-19T10:57:50.789Z,1008.90
2018-03-19T10:58:50.797Z,1008.90
2018-03-19T10:59:50.824Z,1008.87
2018-03-19T11:00:50.779Z,1008.91
2018-03-19T11:01:50.780Z,1008.88
2018-03-19T11:02:50.901Z,1008.84
2018-03-19T11:03:50.775Z,1008.85
2018-03-19T11:04:50.764Z,1008.85
2018-03-19T11:05:50.778Z,1008.79
2018-03-19T11:06:50.885Z,1008.81
2018-03-19T11:07:50.753Z,1008.80
2018-03-19T11:08:50.753Z,1008.77
2018-03-19T11:09:50.755Z,1008.77
2018-03-19T11:10:50.744Z,1008.81
2018-03-19T11:11:50.785Z,1008.82
2018-03-19T11:12:50.733Z,1008.81
2018-03-19T11:13:50.739Z,1008.77
2018-03-19T11:14:50.739Z,1008.79
2018-03-19T11:15:50.722Z,1008.79
2018-03-19T11:16:50.720Z,1008.75
2018-03-19T11:17:50.727Z,1008.73
2018-03-19T11:18:50.709Z,1008.69
2018-03-19T11:19:50.731Z,1008.69
2018-03-19T11:20:50.710Z,1008.62
2018-03-19T11:21:50.704Z,1008.66
2018-03-19T11:22:50.699Z,1008.57
2018-03-19T11:23:50.700Z,1008.57
2018-03-19T11:24:50.690Z,1008.56
2018-03-19T11:25:50.703Z,1008.53
2018-03-19T11:26:50.683Z,1008.50
2018-03-19T11:27:50.681Z,1008.50
2018-03-19T11:28:50.669Z,1008.54
2018-03-19T11:29:50.669Z,1008.47
2018-03-19T11:30:50.682Z,1008.47
2018-03-19T11:31:50.666Z,1008.50
2018-03-19T11:32:50.672Z,1008.50
2018-03-19T11:33:50.654Z,1008.50
2018-03-19T11:34:50.662Z,1008.47
2018-03-19T11:35:50.656Z,1008.47
2018-03-19T11:36:50.644Z,1008.50
2018-03-19T11:37:50.642Z,1008.51
2018-03-19T11:38:50.639Z,1008.53
2018-03-19T11:39:50.640Z,1008.49
2018-03-19T11:40:50.632Z,1008.53
2018-03-19T11:41:50.712Z,1008.54
2018-03-19T11:42:50.639Z,1008.50
2018-03-19T11:43:50.615Z,1008.48
2018-03-19T11:44:50.631Z,1008.48
2018-03-19T11:45:50.611Z,1008.48
2018-03-19T11:46:50.602Z,1008.48
2018-03-19T11:47:50.612Z,1008.48
2018-03-19T11:48:50.610Z,1008.49
2018-03-19T11:49:50.603Z,1008.49
2018-03-19T11:50:50.609Z,1008.45
2018-03-19T11:51:50.597Z,1008.45
2018-03-19T11:52:50.607Z,1008.42
2018-03-19T11:53:50.580Z,1008.48
2018-03-19T11:54:50.572Z,1008.44
2018-03-19T11:55:50.575Z,1008.44
2018-03-19T11:56:50.582Z,1008.48
2018-03-19T11:57:50.575Z,1008.41
2018-03-19T11:58:50.550Z,1008.39
2018-03-19T11:59:50.567Z,1008.38
2018-03-19T12:00:50.550Z,1008.36
2018-03-19T12:01:50.549Z,1008.35
2018-03-19T12:02:50.541Z,1008.34
2018-03-19T12:03:50.540Z,1008.33
2018-03-19T12:04:50.537Z,1008.31
2018-03-19T12:05:50.534Z,1008.31